Time;durP1;ratioP1;P1;durP2;ratioP2;P2;SDS_P1;SDS_P2;PMS_P1;PMS_P2;Temp;Humidity;BMP_temperature;BMP_pressure;BME280_temperature;BME280_humidity;BME280_pressure;Samples;Min_cycle;Max_cycle;Signal;HPM_P1;HPM_P2
2024/01/16 00:00:42;;;;;;;3.22;1.48;;;;;;;-3.86;76.93;95162.28;2091783;28;20049;-59
2024/01/16 00:01:43;;;;;;;2.85;1.45;;;;;;;-3.88;76.74;95163.13;2092035;28;20049;-58
2024/01/16 00:02:45;;;;;;;4.57;1.58;;;;;;;-3.90;76.81;95158.09;2092487;28;20057;-65
2024/01/16 00:03:46;;;;;;;3.70;1.23;;;;;;;-3.94;77.20;95156.41;2092130;28;20036;-57
2024/01/16 00:04:47;;;;;;;14.07;1.83;;;;;;;-3.96;76.75;95165.69;2092241;28;20049;-57
2024/01/16 00:05:48;;;;;;;2.38;1.23;;;;;;;-3.98;76.72;95162.34;2092202;28;20041;-62
2024/01/16 00:06:49;;;;;;;6.13;1.48;;;;;;;-3.99;77.06;95163.19;2091820;28;20056;-59
2024/01/16 00:07:51;;;;;;;2.97;1.45;;;;;;;-3.95;77.43;95164.88;2091451;28;20080;-58
2024/01/16 00:08:52;;;;;;;4.40;1.90;;;;;;;-3.95;77.12;95171.66;2091848;28;20060;-65
2024/01/16 00:09:53;;;;;;;3.75;1.80;;;;;;;-4.00;77.51;95176.72;2092041;28;20044;-62
2024/01/16 00:10:55;;;;;;;4.50;1.30;;;;;;;-4.00;76.87;95172.50;2092157;28;20045;-59
2024/01/16 00:11:56;;;;;;;2.72;1.40;;;;;;;-4.01;77.18;95173.34;2091369;28;20053;-69
2024/01/16 00:12:57;;;;;;;5.50;1.52;;;;;;;-4.07;77.24;95177.59;2091237;28;20369;-57
2024/01/16 00:13:58;;;;;;;3.53;1.65;;;;;;;-4.06;77.20;95176.75;2090372;28;20045;-57
2024/01/16 00:14:59;;;;;;;3.63;1.33;;;;;;;-4.07;76.81;95173.34;2090791;28;20048;-57
2024/01/16 00:16:02;;;;;;;2.08;1.30;;;;;;;-4.05;76.88;95175.91;2091032;28;20452;-57
2024/01/16 00:17:03;;;;;;;5.30;1.42;;;;;;;-4.07;76.95;95173.34;2090721;28;20057;-57
2024/01/16 00:18:04;;;;;;;4.25;1.20;;;;;;;-4.09;76.80;95179.28;2090362;28;20409;-58
2024/01/16 00:19:06;;;;;;;4.68;1.65;;;;;;;-4.22;77.03;95181.88;2090665;28;20405;-58
2024/01/16 00:20:08;;;;;;;2.83;1.35;;;;;;;-4.30;77.42;95182.75;2090611;28;20399;-58
2024/01/16 00:21:09;;;;;;;2.13;0.82;;;;;;;-4.33;77.62;95180.19;2090691;28;20044;-58
2024/01/16 00:22:10;;;;;;;4.40;1.10;;;;;;;-4.36;77.55;95172.59;2090376;28;20059;-61
2024/01/16 00:23:11;;;;;;;4.05;1.23;;;;;;;-4.22;77.59;95178.50;2090700;28;20051;-57
2024/01/16 00:24:15;;;;;;;4.60;1.58;;;;;;;-4.21;77.33;95180.19;2090748;28;20400;-57
2024/01/16 00:25:19;;;;;;;3.05;1.55;;;;;;;-4.18;77.45;95180.16;2090606;28;20489;-57
2024/01/16 00:26:23;;;;;;;3.42;1.30;;;;;;;-4.21;77.05;95178.47;2090257;28;20044;-58
2024/01/16 00:27:25;;;;;;;2.92;1.40;;;;;;;-4.17;76.56;95184.41;2090602;28;20044;-58
2024/01/16 00:28:26;;;;;;;2.05;1.08;;;;;;;-4.23;77.13;95172.56;2090868;28;20044;-57
2024/01/16 00:29:27;;;;;;;5.40;1.60;;;;;;;-4.24;77.04;95175.97;2091139;28;20392;-58
2024/01/16 00:30:29;;;;;;;4.00;1.60;;;;;;;-4.31;77.34;95176.81;2090527;28;20401;-58
2024/01/16 00:31:30;;;;;;;3.15;1.27;;;;;;;-4.31;77.46;95174.28;2090627;28;20378;-58
2024/01/16 00:32:31;;;;;;;3.05;1.02;;;;;;;-4.33;77.35;95178.53;2090566;28;20043;-58
2024/01/16 00:33:32;;;;;;;4.15;1.52;;;;;;;-4.32;77.32;95177.69;2090787;28;20037;-58
2024/01/16 00:34:33;;;;;;;2.42;1.40;;;;;;;-4.29;77.11;95170.06;2090386;28;20405;-58
2024/01/16 00:35:35;;;;;;;4.22;1.10;;;;;;;-4.29;77.41;95177.66;2090534;28;20116;-57
2024/01/16 00:36:36;;;;;;;5.63;1.75;;;;;;;-4.27;76.86;95175.97;2090998;28;20060;-57
2024/01/16 00:37:37;;;;;;;4.15;2.00;;;;;;;-4.27;77.29;95175.97;2090595;28;20503;-57
2024/01/16 00:38:38;;;;;;;3.03;0.95;;;;;;;-4.26;76.92;95176.81;2090521;28;20049;-58
2024/01/16 00:39:39;;;;;;;3.65;1.30;;;;;;;-4.22;76.85;95168.34;2090114;28;20041;-57
2024/01/16 00:40:40;;;;;;;4.78;1.25;;;;;;;-4.17;76.95;95178.47;2090607;28;20044;-58
2024/01/16 00:41:41;;;;;;;2.53;1.15;;;;;;;-4.15;76.58;95185.22;2090764;28;20392;-57
2024/01/16 00:42:43;;;;;;;1.70;0.90;;;;;;;-4.17;76.66;95173.38;2090463;28;20045;-57
2024/01/16 00:43:44;;;;;;;7.03;1.73;;;;;;;-4.13;77.08;95180.16;2091024;28;20057;-57
2024/01/16 00:44:45;;;;;;;5.07;1.95;;;;;;;-4.13;76.42;95177.63;2090517;28;20044;-58
2024/01/16 00:45:47;;;;;;;3.45;1.15;;;;;;;-4.13;77.11;95175.09;2090446;28;20053;-58
2024/01/16 00:46:48;;;;;;;4.40;1.58;;;;;;;-4.11;76.82;95175.94;2090515;28;20048;-58
2024/01/16 00:47:49;;;;;;;4.05;1.83;;;;;;;-4.11;76.60;95173.41;2091197;28;20378;-58
2024/01/16 00:48:51;;;;;;;3.33;1.30;;;;;;;-4.13;76.67;95175.09;2090816;28;20033;-58
2024/01/16 00:49:52;;;;;;;2.85;1.35;;;;;;;-4.17;77.06;95174.25;2090484;28;20037;-58
2024/01/16 00:50:54;;;;;;;6.25;1.75;;;;;;;-4.21;77.14;95168.34;2090539;28;20036;-58
2024/01/16 00:51:55;;;;;;;2.83;1.23;;;;;;;-4.18;77.25;95167.47;2090610;28;20036;-58
2024/01/16 00:52:56;;;;;;;3.25;1.60;;;;;;;-4.14;76.69;95175.91;2090402;28;20049;-58
2024/01/16 00:53:57;;;;;;;2.42;1.10;;;;;;;-4.17;76.72;95165.78;2090512;28;20481;-58
2024/01/16 00:54:58;;;;;;;3.42;1.35;;;;;;;-4.22;76.75;95176.81;2090582;28;20037;-58
2024/01/16 00:55:59;;;;;;;3.50;1.63;;;;;;;-4.26;76.78;95167.50;2090433;28;20036;-58
2024/01/16 00:57:00;;;;;;;2.65;1.27;;;;;;;-4.26;76.93;95172.56;2090720;28;20493;-58
2024/01/16 00:58:01;;;;;;;2.47;1.20;;;;;;;-4.30;77.30;95170.91;2090392;28;20037;-58
2024/01/16 00:59:02;;;;;;;2.72;0.88;;;;;;;-4.31;77.24;95179.34;2090470;28;20053;-58
2024/01/16 01:00:05;;;;;;;3.15;1.23;;;;;;;-4.29;76.96;95182.72;2090463;28;20045;-58
2024/01/16 01:01:06;;;;;;;4.68;1.80;;;;;;;-4.27;77.11;95180.22;2090298;28;20471;-58
2024/01/16 01:02:09;;;;;;;3.30;1.10;;;;;;;-4.26;76.88;95177.66;2090381;28;20049;-58
2024/01/16 01:03:10;;;;;;;3.88;1.10;;;;;;;-4.23;76.58;95180.16;2090143;28;20063;-58
2024/01/16 01:04:11;;;;;;;3.17;1.17;;;;;;;-4.28;76.83;95181.03;2090338;28;20052;-58
2024/01/16 01:05:13;;;;;;;3.25;1.35;;;;;;;-4.33;77.23;95177.66;2090478;28;20508;-58
2024/01/16 01:06:14;;;;;;;4.55;1.42;;;;;;;-4.37;77.43;95188.69;2090345;28;20428;-58
2024/01/16 01:07:15;;;;;;;2.50;1.20;;;;;;;-4.35;77.29;95175.16;2090391;28;20044;-58
2024/01/16 01:08:16;;;;;;;4.32;1.05;;;;;;;-4.37;77.48;95184.44;2090063;28;20049;-58
2024/01/16 01:09:17;;;;;;;3.38;1.10;;;;;;;-4.38;77.55;95187.84;2090607;28;20045;-58
2024/01/16 01:10:18;;;;;;;5.35;1.33;;;;;;;-4.38;77.71;95184.44;2090364;28;20048;-58
2024/01/16 01:11:19;;;;;;;4.53;1.75;;;;;;;-4.36;77.57;95185.28;2090314;28;20025;-58
2024/01/16 01:12:21;;;;;;;4.57;1.33;;;;;;;-4.39;77.69;95185.28;2090201;28;20044;-58
2024/01/16 01:13:22;;;;;;;3.95;1.42;;;;;;;-4.39;77.58;95187.81;2090324;28;20044;-58
2024/01/16 01:14:23;;;;;;;2.95;1.15;;;;;;;-4.40;77.89;95186.16;2090281;28;20378;-58
2024/01/16 01:15:24;;;;;;;6.63;3.00;;;;;;;-4.41;77.21;95182.78;2090318;28;20052;-58
2024/01/16 01:16:25;;;;;;;3.70;1.40;;;;;;;-4.41;77.28;95195.47;2090202;28;20053;-58
2024/01/16 01:17:27;;;;;;;3.38;1.33;;;;;;;-4.40;77.52;95181.91;2090224;28;20085;-58
2024/01/16 01:18:28;;;;;;;4.53;1.35;;;;;;;-4.41;77.86;95192.91;2088764;28;20524;-57
2024/01/16 01:19:29;;;;;;;6.10;1.33;;;;;;;-4.39;77.40;95187.81;2088586;28;20041;-58
2024/01/16 01:20:30;;;;;;;3.65;1.83;;;;;;;-4.46;77.74;95194.63;2090369;28;20053;-58
2024/01/16 01:21:31;;;;;;;5.53;1.20;;;;;;;-4.48;77.78;95186.16;2090610;28;20040;-58
2024/01/16 01:22:32;;;;;;;2.15;1.30;;;;;;;-4.42;77.79;95196.28;2090257;28;20045;-55
2024/01/16 01:23:33;;;;;;;3.75;1.70;;;;;;;-4.48;77.80;95204.75;2089965;28;20052;-54
2024/01/16 01:24:34;;;;;;;2.92;1.48;;;;;;;-4.57;77.72;95208.97;2090416;28;20037;-55
2024/01/16 01:25:35;;;;;;;3.72;1.30;;;;;;;-4.52;78.16;95209.81;2090262;28;20033;-54
2024/01/16 01:26:36;;;;;;;3.35;1.25;;;;;;;-4.52;78.00;95204.75;2090121;28;20049;-55
2024/01/16 01:27:38;;;;;;;2.78;1.30;;;;;;;-4.56;77.82;95213.22;2090763;28;20040;-55
2024/01/16 01:28:40;;;;;;;3.75;2.33;;;;;;;-4.65;78.04;95216.63;2089875;28;20401;-55
2024/01/16 01:29:41;;;;;;;2.83;0.95;;;;;;;-4.73;78.55;95210.69;2090044;28;20535;-55
2024/01/16 01:30:42;;;;;;;4.28;1.63;;;;;;;-4.77;78.69;95217.44;2089801;28;20048;-56
2024/01/16 01:31:47;;;;;;;3.88;1.45;;;;;;;-4.84;79.38;95218.28;2090072;28;20040;-57
2024/01/16 01:32:48;;;;;;;6.15;2.22;;;;;;;-4.87;79.32;95210.69;2090365;28;20416;-55
2024/01/16 01:33:49;;;;;;;4.57;1.60;;;;;;;-4.88;79.24;95229.28;2090260;28;20045;-55
2024/01/16 01:34:51;;;;;;;6.22;1.85;;;;;;;-4.90;79.04;95236.03;2090199;28;20040;-56
2024/01/16 01:35:52;;;;;;;3.58;1.42;;;;;;;-4.95;79.49;95235.19;2090581;28;20489;-55
2024/01/16 01:36:53;;;;;;;4.55;1.80;;;;;;;-4.98;79.78;95227.56;2090618;28;20045;-58
2024/01/16 01:37:54;;;;;;;2.28;1.23;;;;;;;-5.00;79.84;95239.38;2090130;28;20033;-58
2024/01/16 01:38:55;;;;;;;3.35;1.35;;;;;;;-4.99;79.85;95241.09;2090257;28;20533;-58
2024/01/16 01:39:56;;;;;;;5.78;1.75;;;;;;;-5.05;79.78;95238.53;2090098;28;20047;-58
2024/01/16 01:40:57;;;;;;;3.55;1.48;;;;;;;-5.13;80.17;95243.63;2090748;28;20060;-58
2024/01/16 01:41:58;;;;;;;3.00;1.35;;;;;;;-5.25;80.43;95246.13;2090679;28;20386;-58
2024/01/16 01:43:25;;;;;;;4.55;1.48;;;;;;;-5.34;80.92;95247.78;2090229;28;20397;-58
2024/01/16 01:44:26;;;;;;;4.03;1.80;;;;;;;-5.42;80.60;95241.88;2090143;28;20045;-58
2024/01/16 01:45:27;;;;;;;3.67;1.52;;;;;;;-5.44;81.26;95243.53;2090216;28;20041;-58
2024/01/16 01:46:28;;;;;;;5.57;1.85;;;;;;;-5.46;81.41;95241.84;2089884;28;20075;-58
2024/01/16 01:47:30;;;;;;;3.72;1.80;;;;;;;-5.50;81.85;95243.53;2081661;28;20033;-58
2024/01/16 01:48:31;;;;;;;5.47;1.83;;;;;;;-5.58;81.75;95240.16;2081625;28;20045;-58
2024/01/16 01:49:32;;;;;;;4.75;2.00;;;;;;;-5.64;82.18;95247.69;2089269;28;20064;-58
2024/01/16 01:50:34;;;;;;;2.90;1.08;;;;;;;-5.86;81.05;95255.19;2089194;28;20124;-58
2024/01/16 01:51:35;;;;;;;4.25;2.22;;;;;;;-6.24;81.63;95252.53;2089771;28;20052;-58
2024/01/16 01:52:38;;;;;;;5.63;2.13;;;;;;;-6.49;82.40;95249.03;2097527;28;20423;-57
2024/01/16 01:53:39;;;;;;;7.57;2.92;;;;;;;-6.64;82.66;95251.44;2090112;28;20476;-57
2024/01/16 01:54:40;;;;;;;3.63;1.98;;;;;;;-6.73;83.37;95254.75;2090096;28;20040;-57
2024/01/16 01:55:41;;;;;;;4.55;2.38;;;;;;;-6.83;83.65;95258.88;2089584;28;20040;-57
2024/01/16 01:56:44;;;;;;;5.65;2.63;;;;;;;-6.94;84.71;95246.16;2089393;28;20048;-57
2024/01/16 01:57:45;;;;;;;3.53;1.75;;;;;;;-6.92;84.82;95251.25;2089507;28;20115;-57
2024/01/16 01:58:47;;;;;;;6.03;2.60;;;;;;;-6.95;84.75;95262.16;2089448;28;20045;-60
2024/01/16 01:59:48;;;;;;;4.63;2.28;;;;;;;-6.99;85.40;95259.59;2089449;28;20033;-57
2024/01/16 02:00:50;;;;;;;6.03;2.95;;;;;;;-7.10;85.63;95269.59;2072913;28;20062;-57
2024/01/16 02:01:54;;;;;;;4.50;3.08;;;;;;;-7.15;86.15;95271.22;2072975;28;20054;-58
2024/01/16 02:02:55;;;;;;;2.83;1.55;;;;;;;-7.20;86.94;95272.84;2089361;28;20068;-56
2024/01/16 02:03:57;;;;;;;6.85;2.70;;;;;;;-7.21;86.58;95264.44;2089857;28;20056;-56
2024/01/16 02:04:58;;;;;;;7.47;2.85;;;;;;;-7.19;87.23;95265.31;2081156;28;20048;-56
2024/01/16 02:05:59;;;;;;;5.47;1.98;;;;;;;-7.17;87.04;95270.34;2081426;28;20046;-56
2024/01/16 02:07:00;;;;;;;4.43;1.95;;;;;;;-7.13;86.41;95272.09;2097494;28;20055;-55
2024/01/16 02:08:01;;;;;;;5.72;2.70;;;;;;;-7.03;87.38;95268.81;2097109;28;20079;-56
2024/01/16 02:09:06;;;;;;;3.92;2.17;;;;;;;-6.96;86.85;95272.22;2088859;28;20522;-56
2024/01/16 02:10:08;;;;;;;13.18;3.13;;;;;;;-6.88;86.09;95268.09;2089370;28;20053;-56
2024/01/16 02:11:09;;;;;;;5.75;2.25;;;;;;;-6.78;85.88;95269.00;2089951;28;20052;-56
2024/01/16 02:12:11;;;;;;;5.82;2.22;;;;;;;-6.85;85.41;95265.59;2090252;28;20068;-56
2024/01/16 02:13:12;;;;;;;6.47;2.58;;;;;;;-6.88;85.55;95268.91;2090007;28;20052;-56
2024/01/16 02:14:13;;;;;;;7.03;1.92;;;;;;;-6.81;85.79;95269.00;2090519;28;20052;-56
2024/01/16 02:15:14;;;;;;;3.50;1.63;;;;;;;-6.75;85.51;95272.41;2090282;28;20505;-56
2024/01/16 02:16:21;;;;;;;3.88;1.13;;;;;;;-6.75;85.34;95267.34;2090033;28;20044;-56
2024/01/16 02:17:22;;;;;;;6.90;2.10;;;;;;;-6.74;85.91;95261.44;2090406;28;20048;-56
2024/01/16 02:18:23;;;;;;;6.10;2.95;;;;;;;-6.74;85.03;95268.19;2089569;28;20492;-57
2024/01/16 02:19:25;;;;;;;5.80;2.67;;;;;;;-6.80;85.28;95263.09;2090911;28;20041;-61
2024/01/16 02:20:26;;;;;;;3.58;1.38;;;;;;;-6.80;86.02;95268.16;2090475;28;20378;-56
2024/01/16 02:21:28;;;;;;;5.93;2.17;;;;;;;-6.79;86.27;95264.78;2083350;28;20029;-56
2024/01/16 02:22:29;;;;;;;3.30;1.83;;;;;;;-6.74;86.06;95266.50;2081620;28;20041;-56
2024/01/16 02:23:30;;;;;;;5.03;2.22;;;;;;;-6.69;85.84;95269.06;2089078;28;20053;-55
2024/01/16 02:24:31;;;;;;;5.70;2.15;;;;;;;-6.72;85.29;95274.94;2081229;28;20478;-56
2024/01/16 02:25:32;;;;;;;4.47;1.35;;;;;;;-6.76;85.88;95265.66;2072934;28;20042;-54
2024/01/16 02:26:33;;;;;;;4.80;2.22;;;;;;;-6.78;85.00;95267.34;2089658;28;20052;-53
2024/01/16 02:27:34;;;;;;;5.82;2.33;;;;;;;-6.81;85.53;95269.84;2090041;28;20037;-53
2024/01/16 02:28:35;;;;;;;7.65;2.55;;;;;;;-6.88;84.87;95273.97;2089943;28;20041;-53
2024/01/16 02:29:46;;;;;;;6.38;2.80;;;;;;;-6.92;85.16;95269.75;2090048;28;20041;-53
2024/01/16 02:30:47;;;;;;;5.03;2.03;;;;;;;-6.95;85.78;95277.31;2091012;28;20085;-53
2024/01/16 02:31:48;;;;;;;4.78;1.75;;;;;;;-6.98;85.64;95271.34;2091346;28;20489;-53
2024/01/16 02:32:49;;;;;;;5.47;2.13;;;;;;;-7.02;85.31;95274.72;2091809;28;20041;-54
2024/01/16 02:33:50;;;;;;;4.38;2.28;;;;;;;-7.05;86.17;95284.78;2091198;28;20057;-53
2024/01/16 02:34:51;;;;;;;5.85;2.58;;;;;;;-7.06;85.30;95280.53;2091101;28;20516;-54
2024/01/16 02:35:52;;;;;;;4.63;2.33;;;;;;;-7.11;85.51;95286.41;2091037;28;20045;-54
2024/01/16 02:36:54;;;;;;;3.17;1.27;;;;;;;-7.16;86.45;95288.03;2091535;28;20048;-54
2024/01/16 02:37:55;;;;;;;4.22;1.73;;;;;;;-7.18;86.06;95287.19;2091586;28;20416;-53
2024/01/16 02:38:56;;;;;;;4.07;1.52;;;;;;;-7.22;86.20;95279.56;2091623;28;20415;-54
2024/01/16 02:39:58;;;;;;;4.68;1.98;;;;;;;-7.20;86.58;95293.88;2091409;28;20048;-53
2024/01/16 02:40:59;;;;;;;5.68;2.13;;;;;;;-7.19;86.66;95287.16;2091678;28;20045;-54
2024/01/16 02:42:00;;;;;;;2.90;1.23;;;;;;;-7.19;86.49;95294.72;2091659;28;20044;-53
2024/01/16 02:43:01;;;;;;;6.07;2.90;;;;;;;-7.15;86.76;95296.44;2091592;28;20044;-53
2024/01/16 02:44:02;;;;;;;4.53;2.35;;;;;;;-7.18;86.70;95291.38;2091958;28;20075;-54
2024/01/16 02:45:05;;;;;;;4.55;1.80;;;;;;;-7.23;86.83;95301.41;2091313;28;20212;-53
2024/01/16 02:46:06;;;;;;;8.10;2.05;;;;;;;-7.17;85.83;95295.59;2092037;28;20056;-53
2024/01/16 02:47:07;;;;;;;7.05;1.80;;;;;;;-7.12;85.92;95299.84;2091257;28;20416;-54
2024/01/16 02:48:09;;;;;;;4.50;2.33;;;;;;;-7.07;86.22;95297.38;2091357;28;20053;-54
2024/01/16 02:49:10;;;;;;;6.15;2.40;;;;;;;-7.12;86.50;95299.00;2091419;28;20108;-54
2024/01/16 02:50:11;;;;;;;3.38;1.52;;;;;;;-7.08;86.27;95295.69;2091382;28;20045;-54
2024/01/16 02:51:12;;;;;;;3.70;1.70;;;;;;;-7.08;85.63;95298.22;2091599;28;20025;-54
2024/01/16 02:52:13;;;;;;;5.70;2.55;;;;;;;-7.07;85.83;95299.91;2091508;28;20044;-54
2024/01/16 02:53:15;;;;;;;6.22;1.73;;;;;;;-7.08;84.93;95304.91;2091567;28;20488;-54
2024/01/16 02:54:16;;;;;;;4.70;1.77;;;;;;;-7.10;84.83;95303.22;2091503;28;20053;-53
2024/01/16 02:55:17;;;;;;;5.75;2.05;;;;;;;-7.03;85.67;95304.16;2091494;28;20040;-55
2024/01/16 02:56:18;;;;;;;5.18;2.25;;;;;;;-7.03;84.42;95299.09;2091371;28;20060;-56
2024/01/16 02:57:19;;;;;;;6.10;2.75;;;;;;;-7.09;84.32;95299.03;2091433;28;20480;-56
2024/01/16 02:58:21;;;;;;;4.18;2.17;;;;;;;-7.12;84.58;95299.00;2091764;28;20033;-56
2024/01/16 02:59:22;;;;;;;7.70;3.25;;;;;;;-7.21;84.64;95294.72;2091355;28;20037;-55
2024/01/16 03:00:23;;;;;;;3.65;1.98;;;;;;;-7.21;84.57;95293.88;2091335;28;20465;-56
2024/01/16 03:01:24;;;;;;;3.63;2.10;;;;;;;-7.21;85.03;95306.50;2091125;28;20033;-54
2024/01/16 03:02:25;;;;;;;4.95;2.13;;;;;;;-7.27;85.16;95306.41;2091162;28;20045;-53
2024/01/16 03:03:26;;;;;;;5.45;2.92;;;;;;;-7.33;84.68;95305.50;2091385;28;20044;-53
2024/01/16 03:04:28;;;;;;;6.65;2.75;;;;;;;-7.38;85.32;95303.78;2091606;28;20040;-53
2024/01/16 03:05:29;;;;;;;5.47;2.60;;;;;;;-7.43;84.85;95307.91;2091216;28;20052;-56
2024/01/16 03:06:30;;;;;;;2.25;1.30;;;;;;;-7.45;85.19;95302.88;2091324;28;20507;-56
2024/01/16 03:07:31;;;;;;;4.38;1.95;;;;;;;-7.45;85.25;95307.09;2091278;28;20040;-56
2024/01/16 03:08:32;;;;;;;3.22;1.80;;;;;;;-7.45;84.44;95307.91;2091341;28;20045;-56
2024/01/16 03:09:33;;;;;;;3.65;1.42;;;;;;;-7.50;85.25;95314.59;2091211;28;20477;-56
2024/01/16 03:10:34;;;;;;;6.18;2.80;;;;;;;-7.46;84.68;95313.78;2091750;28;20044;-56
2024/01/16 03:11:35;;;;;;;9.13;2.53;;;;;;;-7.47;84.76;95308.72;2091494;28;20025;-56
2024/01/16 03:12:37;;;;;;;5.28;2.10;;;;;;;-7.43;84.39;95321.41;2091525;28;20045;-56
2024/01/16 03:13:38;;;;;;;5.35;2.47;;;;;;;-7.53;84.94;95312.03;2091162;28;20416;-56
2024/01/16 03:14:39;;;;;;;5.88;2.63;;;;;;;-7.55;84.60;95316.22;2091541;28;20036;-56
2024/01/16 03:15:40;;;;;;;3.83;1.83;;;;;;;-7.57;84.68;95311.13;2090880;28;20052;-56
2024/01/16 03:16:41;;;;;;;5.28;1.88;;;;;;;-7.61;85.18;95314.47;2091268;28;20033;-55
2024/01/16 03:17:43;;;;;;;6.30;2.40;;;;;;;-7.67;84.73;95316.06;2091267;28;20056;-56
2024/01/16 03:18:44;;;;;;;5.15;2.15;;;;;;;-7.66;85.09;95310.19;2090520;28;20049;-56
2024/01/16 03:19:45;;;;;;;4.10;2.10;;;;;;;-7.69;85.89;95313.53;2091392;28;20040;-56
2024/01/16 03:20:46;;;;;;;5.38;2.20;;;;;;;-7.71;86.23;95316.84;2091014;28;20492;-56
2024/01/16 03:21:47;;;;;;;5.03;2.20;;;;;;;-7.71;84.97;95319.38;2091111;28;20028;-55
2024/01/16 03:22:48;;;;;;;7.90;3.00;;;;;;;-7.73;85.32;95316.00;2091335;28;20045;-55
2024/01/16 03:23:50;;;;;;;4.38;1.98;;;;;;;-7.77;86.03;95315.97;2090682;28;20052;-55
2024/01/16 03:24:51;;;;;;;8.30;2.65;;;;;;;-7.81;85.26;95315.88;2090813;28;20060;-55
2024/01/16 03:25:52;;;;;;;5.97;2.10;;;;;;;-7.82;86.07;95321.78;2090941;28;20064;-56
2024/01/16 03:26:53;;;;;;;9.30;3.33;;;;;;;-7.82;85.56;95315.06;2090758;28;20053;-57
2024/01/16 03:27:54;;;;;;;5.88;2.15;;;;;;;-7.79;86.11;95320.13;2090766;28;20060;-56
2024/01/16 03:28:55;;;;;;;7.45;2.85;;;;;;;-7.77;85.72;95312.59;2090016;28;20064;-56
2024/01/16 03:29:56;;;;;;;7.00;2.55;;;;;;;-7.74;86.05;95320.19;2090988;28;20051;-56
2024/01/16 03:30:57;;;;;;;5.15;2.33;;;;;;;-7.78;86.42;95316.78;2091001;28;20138;-56
2024/01/16 03:31:59;;;;;;;5.10;2.50;;;;;;;-7.83;86.55;95303.28;2091461;28;20049;-56
2024/01/16 03:33:00;;;;;;;9.55;1.73;;;;;;;-7.88;85.99;95314.97;2091013;28;20048;-56
2024/01/16 03:34:01;;;;;;;7.13;2.53;;;;;;;-7.84;86.57;95320.91;2091555;28;20049;-56
2024/01/16 03:35:03;;;;;;;4.13;1.52;;;;;;;-7.86;86.04;95323.41;2090470;28;20053;-56
2024/01/16 03:36:04;;;;;;;4.90;2.03;;;;;;;-7.80;85.98;95313.41;2090621;28;20461;-56
2024/01/16 03:37:06;;;;;;;4.63;2.05;;;;;;;-7.80;86.25;95312.56;2090732;28;20040;-56
2024/01/16 03:38:07;;;;;;;6.40;3.17;;;;;;;-7.80;87.12;95308.38;2090044;28;20053;-56
2024/01/16 03:39:08;;;;;;;3.58;1.60;;;;;;;-7.76;87.07;95309.22;2091212;28;20408;-57
2024/01/16 03:40:12;;;;;;;3.40;1.75;;;;;;;-7.69;86.90;95308.50;2090963;28;20047;-56
2024/01/16 03:41:13;;;;;;;5.75;2.47;;;;;;;-7.72;87.10;95305.06;2090889;28;20053;-56
2024/01/16 03:42:14;;;;;;;6.32;2.90;;;;;;;-7.76;86.13;95315.13;2090112;28;20072;-56
2024/01/16 03:43:15;;;;;;;4.82;1.80;;;;;;;-7.68;86.27;95311.84;2090990;28;20049;-56
2024/01/16 03:44:16;;;;;;;6.25;2.42;;;;;;;-7.67;86.57;95306.84;2090955;28;20044;-56
2024/01/16 03:45:18;;;;;;;3.33;1.67;;;;;;;-7.64;87.58;95309.41;2090941;28;20480;-56
2024/01/16 03:46:19;;;;;;;6.03;2.83;;;;;;;-7.68;86.11;95307.66;2090681;28;20049;-56
2024/01/16 03:47:20;;;;;;;4.55;1.98;;;;;;;-7.71;87.30;95307.63;2090257;28;20049;-56
2024/01/16 03:48:21;;;;;;;7.78;3.15;;;;;;;-7.66;87.38;95310.19;2090918;28;20492;-56
2024/01/16 03:49:22;;;;;;;2.28;1.30;;;;;;;-7.69;87.52;95303.44;2091338;28;20028;-56
2024/01/16 03:50:23;;;;;;;6.70;2.05;;;;;;;-7.64;87.20;95303.50;2090914;28;20045;-56
2024/01/16 03:51:24;;;;;;;4.63;2.17;;;;;;;-7.65;86.83;95307.69;2091084;28;20025;-56
2024/01/16 03:52:25;;;;;;;5.38;2.70;;;;;;;-7.67;87.00;95298.41;2091029;28;20041;-56
2024/01/16 03:53:26;;;;;;;3.53;1.73;;;;;;;-7.67;87.86;95296.75;2090294;28;20045;-57
2024/01/16 03:54:28;;;;;;;4.88;2.72;;;;;;;-7.52;87.70;95297.75;2089990;28;20049;-56
2024/01/16 03:55:29;;;;;;;5.15;2.00;;;;;;;-7.49;87.13;95301.13;2090694;28;20049;-56
2024/01/16 03:56:30;;;;;;;6.80;3.00;;;;;;;-7.45;87.28;95300.34;2090963;28;20044;-56
2024/01/16 03:57:31;;;;;;;9.43;2.97;;;;;;;-7.50;87.77;95307.03;2090973;28;20037;-56
2024/01/16 03:58:32;;;;;;;4.65;2.20;;;;;;;-7.52;87.46;95300.28;2090950;28;20401;-56
2024/01/16 03:59:36;;;;;;;7.10;3.20;;;;;;;-7.53;86.93;95301.94;2090872;28;20037;-56
2024/01/16 04:00:37;;;;;;;6.82;2.67;;;;;;;-7.49;87.26;95307.88;2089903;28;20056;-56
2024/01/16 04:01:38;;;;;;;6.50;2.10;;;;;;;-7.49;87.30;95313.75;2089893;28;20045;-57
2024/01/16 04:02:39;;;;;;;8.23;2.95;;;;;;;-7.48;87.25;95307.03;2090661;28;20056;-56
2024/01/16 04:03:40;;;;;;;6.00;2.63;;;;;;;-7.48;86.85;95312.06;2090991;28;20048;-56
2024/01/16 04:04:42;;;;;;;9.20;3.25;;;;;;;-7.44;86.98;95306.25;2090664;28;20055;-56
2024/01/16 04:05:43;;;;;;;7.47;2.70;;;;;;;-7.46;87.98;95307.91;2090772;28;20507;-56
2024/01/16 04:06:44;;;;;;;6.20;2.25;;;;;;;-7.37;88.04;95318.94;2090783;28;20045;-56
2024/01/16 04:07:45;;;;;;;7.95;3.03;;;;;;;-7.40;87.30;95318.91;2090588;28;20053;-56
2024/01/16 04:08:46;;;;;;;6.13;2.60;;;;;;;-7.46;87.03;95313.78;2089584;28;20544;-56
2024/01/16 04:09:47;;;;;;;5.88;2.20;;;;;;;-7.34;87.05;95313.94;2090281;28;20049;-56
2024/01/16 04:10:48;;;;;;;1.75;0.98;;;;;;;-7.33;86.81;95317.28;2090315;28;20044;-56
2024/01/16 04:11:50;;;;;;;6.15;2.30;;;;;;;-7.33;87.59;95320.66;2090494;28;20048;-56
2024/01/16 04:12:51;;;;;;;7.00;3.13;;;;;;;-7.38;86.69;95316.38;2090726;28;20045;-56
2024/01/16 04:13:52;;;;;;;6.20;2.45;;;;;;;-7.48;86.61;95327.19;2090781;28;20052;-56
2024/01/16 04:14:53;;;;;;;5.97;2.90;;;;;;;-7.45;87.55;95327.25;2090935;28;20048;-56
2024/01/16 04:15:55;;;;;;;2.78;1.30;;;;;;;-7.43;86.99;95325.56;2090297;28;20045;-57
2024/01/16 04:16:56;;;;;;;6.95;3.28;;;;;;;-7.44;87.82;95334.00;2090168;28;20064;-56
2024/01/16 04:17:57;;;;;;;7.75;3.05;;;;;;;-7.46;87.83;95328.91;2090050;28;20079;-56
2024/01/16 04:18:59;;;;;;;7.38;3.72;;;;;;;-7.55;87.43;95324.63;2090138;28;20068;-57
2024/01/16 04:20:00;;;;;;;5.10;1.88;;;;;;;-7.59;87.45;95325.44;2090858;28;20045;-56
2024/01/16 04:21:01;;;;;;;7.60;2.88;;;;;;;-7.61;87.58;95318.66;2090628;28;20040;-56
2024/01/16 04:22:04;;;;;;;5.68;1.58;;;;;;;-7.64;87.79;95327.03;2090619;28;20412;-57
2024/01/16 04:23:05;;;;;;;5.47;2.38;;;;;;;-7.62;87.06;95329.56;2090836;28;20052;-56
2024/01/16 04:24:07;;;;;;;7.43;2.85;;;;;;;-7.68;87.66;95321.94;2090648;28;20053;-56
2024/01/16 04:25:08;;;;;;;7.22;2.60;;;;;;;-7.66;88.40;95330.38;2090654;28;20056;-56
2024/01/16 04:26:10;;;;;;;8.00;3.17;;;;;;;-7.66;88.24;95332.91;2090616;28;20049;-56
2024/01/16 04:27:11;;;;;;;3.22;1.08;;;;;;;-7.67;87.66;95331.19;2090681;28;20041;-57
2024/01/16 04:28:13;;;;;;;7.70;2.70;;;;;;;-7.64;87.64;95331.25;2091072;28;20045;-56
2024/01/16 04:29:14;;;;;;;4.78;1.92;;;;;;;-7.65;88.41;95327.00;2090541;28;20049;-56
2024/01/16 04:30:15;;;;;;;3.83;1.48;;;;;;;-7.66;88.18;95327.84;2090678;28;20373;-56
2024/01/16 04:31:19;;;;;;;7.00;3.17;;;;;;;-7.54;87.91;95330.50;2090040;28;20056;-56
2024/01/16 04:32:20;;;;;;;9.00;2.97;;;;;;;-7.60;87.21;95332.97;2090292;28;20049;-56
2024/01/16 04:33:21;;;;;;;7.10;2.92;;;;;;;-7.64;88.17;95337.13;2090444;28;20075;-56
2024/01/16 04:34:22;;;;;;;7.63;2.97;;;;;;;-7.67;88.56;95333.69;2090343;28;20052;-57
2024/01/16 04:35:23;;;;;;;5.47;2.40;;;;;;;-7.64;87.69;95338.81;2090343;28;20056;-56
2024/01/16 04:36:25;;;;;;;7.43;3.63;;;;;;;-7.68;87.23;95332.03;2091278;28;20052;-57
2024/01/16 04:37:26;;;;;;;9.73;3.55;;;;;;;-7.75;87.77;95336.16;2090702;28;20036;-56
2024/01/16 04:38:27;;;;;;;10.05;3.08;;;;;;;-7.84;88.30;95346.09;2090739;28;20531;-57
2024/01/16 04:39:28;;;;;;;7.80;3.40;;;;;;;-7.94;88.12;95337.56;2090488;28;20056;-56
2024/01/16 04:40:29;;;;;;;6.63;2.60;;;;;;;-8.00;88.07;95337.50;2091031;28;20033;-56
2024/01/16 04:41:30;;;;;;;9.10;3.28;;;;;;;-8.03;89.08;95343.34;2092407;28;20469;-56
2024/01/16 04:42:32;;;;;;;6.78;2.58;;;;;;;-8.03;89.21;95334.94;2091328;28;20049;-70
2024/01/16 04:43:33;;;;;;;7.60;2.67;;;;;;;-8.06;88.66;95329.84;2091666;28;20048;-56
2024/01/16 04:44:34;;;;;;;8.02;2.92;;;;;;;-8.04;89.88;95336.63;2092088;28;20083;-60
2024/01/16 04:45:35;;;;;;;6.80;3.03;;;;;;;-7.99;88.81;95334.16;2092086;28;20400;-57
2024/01/16 04:46:36;;;;;;;6.40;2.92;;;;;;;-7.97;89.66;95332.50;2090572;28;20041;-56
2024/01/16 04:47:37;;;;;;;6.07;2.90;;;;;;;-8.03;88.47;95332.41;2090959;28;20060;-56
2024/01/16 04:48:38;;;;;;;7.85;3.00;;;;;;;-8.11;89.38;95334.81;2090522;28;20068;-56
2024/01/16 04:49:41;;;;;;;8.70;3.55;;;;;;;-8.17;89.25;95332.22;2090469;28;20048;-56